Time;durP1;ratioP1;P1;durP2;ratioP2;P2;SDS_P1;SDS_P2;PMS_P1;PMS_P2;Temp;Humidity;BMP_temperature;BMP_pressure;BME280_temperature;BME280_humidity;BME280_pressure;Samples;Min_cycle;Max_cycle;Signal;HPM_P1;HPM_P2
2023/01/25 00:01:33;;;;;;;12.03;5.33;;;;;;;;;;5093380;28;20449;-83
2023/01/25 00:04:00;;;;;;;17.60;7.27;;;;;;;;;;5094385;28;20442;-82
2023/01/25 00:06:29;;;;;;;15.13;9.40;;;;;;;;;;5093272;28;20457;-80
2023/01/25 00:08:56;;;;;;;9.70;6.30;;;;;;;;;;5094404;28;20455;-82
2023/01/25 00:11:23;;;;;;;13.87;7.33;;;;;;;;;;5093297;28;20449;-82
2023/01/25 00:13:50;;;;;;;14.97;7.40;;;;;;;;;;5094112;28;20451;-83
2023/01/25 00:16:17;;;;;;;12.97;5.83;;;;;;;;;;5093775;28;20473;-84
2023/01/25 00:18:45;;;;;;;10.47;6.00;;;;;;;;;;5093975;28;20483;-83
2023/01/25 00:21:12;;;;;;;16.97;9.17;;;;;;;;;;5093865;28;20465;-83
2023/01/25 00:23:41;;;;;;;11.47;6.50;;;;;;;;;;5093561;28;20445;-84
2023/01/25 00:26:08;;;;;;;10.77;5.87;;;;;;;;;;5093434;28;20902;-83
2023/01/25 00:28:35;;;;;;;11.73;7.43;;;;;;;;;;5093559;28;20452;-83
2023/01/25 00:31:02;;;;;;;10.87;6.33;;;;;;;;;;5093697;28;20935;-84
2023/01/25 00:33:40;;;;;;;14.30;7.70;;;;;;;;;;5093122;28;20459;-83
2023/01/25 00:36:25;;;;;;;10.10;5.93;;;;;;;;;;5093667;28;20777;-83
2023/01/25 00:38:55;;;;;;;13.70;5.87;;;;;;;;;;5080792;28;20481;-83
2023/01/25 00:41:22;;;;;;;9.90;5.40;;;;;;;;;;5094272;28;20461;-83
2023/01/25 00:43:49;;;;;;;12.93;7.20;;;;;;;;;;5094801;28;20794;-82
2023/01/25 00:46:17;;;;;;;9.30;6.87;;;;;;;;;;5094640;28;20445;-84
2023/01/25 00:48:44;;;;;;;12.30;6.77;;;;;;;;;;5086888;28;20805;-83
2023/01/25 00:51:11;;;;;;;11.67;6.83;;;;;;;;;;5094885;28;20451;-83
2023/01/25 00:53:39;;;;;;;14.67;8.33;;;;;;;;;;5094070;28;20454;-83
2023/01/25 00:56:07;;;;;;;11.70;6.90;;;;;;;;;;5094495;28;20825;-82
2023/01/25 00:58:34;;;;;;;15.03;6.90;;;;;;;;;;5093598;28;20482;-82
2023/01/25 01:01:02;;;;;;;13.67;6.97;;;;;;;;;;5095773;28;20448;-82
2023/01/25 01:03:29;;;;;;;14.30;7.67;;;;;;;;;;5097153;28;20444;-82
2023/01/25 01:06:00;;;;;;;12.90;7.23;;;;;;;;;;5095394;28;20442;-78
2023/01/25 01:08:27;;;;;;;12.67;7.20;;;;;;;;;;5080382;28;20460;-82
2023/01/25 01:10:58;;;;;;;12.80;6.10;;;;;;;;;;5093005;28;20455;-82
2023/01/25 01:13:27;;;;;;;14.27;6.47;;;;;;;;;;5092349;28;20453;-82
2023/01/25 01:15:54;;;;;;;9.70;5.97;;;;;;;;;;5092692;28;20474;-83
2023/01/25 01:18:21;;;;;;;11.83;6.77;;;;;;;;;;5092025;28;20487;-81
2023/01/25 01:20:49;;;;;;;19.00;8.73;;;;;;;;;;5092411;28;20449;-77
2023/01/25 01:23:16;;;;;;;10.87;7.13;;;;;;;;;;5092686;28;20465;-83
2023/01/25 01:25:43;;;;;;;11.67;6.97;;;;;;;;;;5092442;28;20447;-83
2023/01/25 01:28:10;;;;;;;12.03;6.23;;;;;;;;;;5092586;28;20451;-82
2023/01/25 01:30:40;;;;;;;14.13;6.00;;;;;;;;;;5091841;28;20451;-83
2023/01/25 01:33:07;;;;;;;11.43;6.90;;;;;;;;;;5092710;28;20445;-82
2023/01/25 01:35:34;;;;;;;8.90;5.50;;;;;;;;;;5091384;28;20450;-82
2023/01/25 01:38:01;;;;;;;14.73;6.63;;;;;;;;;;5092138;28;20453;-82
2023/01/25 01:40:28;;;;;;;13.43;7.70;;;;;;;;;;5091998;28;20453;-82
2023/01/25 01:42:59;;;;;;;9.37;5.90;;;;;;;;;;5092489;28;20463;-82
2023/01/25 01:46:00;;;;;;;11.10;7.90;;;;;;;;;;5091740;28;20485;-82
2023/01/25 01:48:32;;;;;;;9.63;5.83;;;;;;;;;;5009779;28;20473;-82
2023/01/25 01:51:02;;;;;;;13.40;7.27;;;;;;;;;;5010169;28;20462;-82
2023/01/25 01:53:29;;;;;;;10.53;7.27;;;;;;;;;;5046818;28;20438;-82
2023/01/25 01:55:59;;;;;;;13.50;8.03;;;;;;;;;;5092438;28;20454;-82
2023/01/25 01:58:26;;;;;;;14.60;6.63;;;;;;;;;;5078087;28;20492;-82
2023/01/25 02:00:53;;;;;;;9.13;6.30;;;;;;;;;;5092281;28;20447;-82
2023/01/25 02:03:21;;;;;;;12.00;7.70;;;;;;;;;;5091503;28;20457;-82
2023/01/25 02:05:52;;;;;;;11.37;6.30;;;;;;;;;;5091753;28;20444;-80
2023/01/25 02:08:20;;;;;;;10.77;5.97;;;;;;;;;;5091483;28;20466;-83
2023/01/25 02:10:48;;;;;;;11.57;6.50;;;;;;;;;;5092083;28;20454;-78
2023/01/25 02:13:15;;;;;;;11.40;5.93;;;;;;;;;;5092097;28;20877;-82
2023/01/25 02:15:43;;;;;;;13.63;6.47;;;;;;;;;;5090652;28;20445;-82
2023/01/25 02:18:11;;;;;;;20.80;7.07;;;;;;;;;;5092098;28;20449;-83
2023/01/25 02:20:39;;;;;;;10.70;6.40;;;;;;;;;;5091253;28;21133;-82
2023/01/25 02:23:11;;;;;;;10.73;6.93;;;;;;;;;;5091880;28;20928;-82
2023/01/25 02:25:40;;;;;;;15.50;7.00;;;;;;;;;;5091166;28;20445;-82
2023/01/25 02:28:09;;;;;;;16.10;7.20;;;;;;;;;;5092139;28;20459;-82
2023/01/25 02:30:36;;;;;;;9.23;5.43;;;;;;;;;;5091670;28;20449;-82
2023/01/25 02:33:04;;;;;;;13.23;5.20;;;;;;;;;;5091991;28;20449;-83
2023/01/25 02:35:38;;;;;;;14.47;7.83;;;;;;;;;;5090505;28;20455;-82
2023/01/25 02:38:06;;;;;;;11.47;6.43;;;;;;;;;;5091475;28;20445;-83
2023/01/25 02:40:35;;;;;;;12.33;6.63;;;;;;;;;;5090931;28;20491;-81
2023/01/25 02:43:04;;;;;;;14.87;6.03;;;;;;;;;;5091047;28;20457;-81
2023/01/25 02:45:31;;;;;;;11.60;6.73;;;;;;;;;;5077374;28;20485;-81
2023/01/25 02:47:58;;;;;;;12.47;8.00;;;;;;;;;;5091248;28;20816;-78
2023/01/25 02:50:25;;;;;;;9.90;5.33;;;;;;;;;;5091162;28;20455;-81
2023/01/25 02:52:52;;;;;;;10.83;5.63;;;;;;;;;;5091971;28;20455;-81
2023/01/25 02:55:19;;;;;;;10.57;5.50;;;;;;;;;;5090762;28;20447;-80
2023/01/25 02:57:46;;;;;;;12.37;6.50;;;;;;;;;;5091505;28;20459;-81
2023/01/25 03:00:15;;;;;;;8.10;6.07;;;;;;;;;;5091866;28;20489;-81
2023/01/25 03:02:42;;;;;;;13.43;5.93;;;;;;;;;;5090712;28;20454;-80
2023/01/25 03:05:09;;;;;;;10.97;6.10;;;;;;;;;;5090629;28;20449;-82
2023/01/25 03:07:36;;;;;;;10.20;6.73;;;;;;;;;;5090598;28;20456;-82
2023/01/25 03:10:04;;;;;;;16.13;5.80;;;;;;;;;;5093125;28;20456;-81
2023/01/25 03:12:31;;;;;;;8.27;5.10;;;;;;;;;;5095215;28;20458;-81
2023/01/25 03:14:58;;;;;;;11.30;6.67;;;;;;;;;;5095206;28;20461;-80
2023/01/25 03:17:26;;;;;;;11.17;6.87;;;;;;;;;;5094471;28;20448;-81
2023/01/25 03:19:53;;;;;;;9.40;5.03;;;;;;;;;;5095353;28;20484;-82
2023/01/25 03:22:21;;;;;;;18.27;8.73;;;;;;;;;;5094577;28;20821;-81
2023/01/25 03:24:48;;;;;;;12.80;6.20;;;;;;;;;;5094522;28;20456;-80
2023/01/25 03:27:17;;;;;;;8.97;5.73;;;;;;;;;;5094506;28;20926;-81
2023/01/25 03:29:44;;;;;;;14.97;6.20;;;;;;;;;;5095376;28;20454;-81
2023/01/25 03:32:11;;;;;;;11.00;5.77;;;;;;;;;;5095025;28;20455;-82
2023/01/25 03:34:40;;;;;;;12.67;5.50;;;;;;;;;;5094223;28;21222;-82
2023/01/25 03:37:07;;;;;;;11.03;5.90;;;;;;;;;;5094740;28;20451;-82
2023/01/25 03:39:34;;;;;;;12.40;6.10;;;;;;;;;;5095421;28;20485;-82
2023/01/25 03:42:01;;;;;;;9.90;5.40;;;;;;;;;;5098046;28;20464;-82
2023/01/25 03:44:28;;;;;;;11.97;6.33;;;;;;;;;;5098647;28;20471;-82
2023/01/25 03:46:55;;;;;;;11.10;5.67;;;;;;;;;;5102688;28;20448;-81
2023/01/25 03:49:22;;;;;;;14.97;7.43;;;;;;;;;;5104147;28;20448;-82
2023/01/25 03:51:51;;;;;;;8.03;5.20;;;;;;;;;;5105314;28;20481;-78
2023/01/25 03:54:18;;;;;;;9.17;4.83;;;;;;;;;;5106745;28;20470;-71
2023/01/25 03:56:45;;;;;;;12.17;5.50;;;;;;;;;;5107499;28;20459;-81
2023/01/25 03:59:12;;;;;;;11.10;5.57;;;;;;;;;;5110036;28;20490;-81
2023/01/25 04:01:39;;;;;;;12.90;7.23;;;;;;;;;;5109743;28;20459;-82
2023/01/25 04:04:06;;;;;;;13.53;6.33;;;;;;;;;;5110733;28;20440;-82
2023/01/25 04:06:33;;;;;;;11.03;5.30;;;;;;;;;;5109893;28;20447;-82
2023/01/25 04:09:02;;;;;;;7.83;4.73;;;;;;;;;;5110224;28;20446;-81
2023/01/25 04:11:29;;;;;;;8.00;5.10;;;;;;;;;;5110826;28;20559;-79
2023/01/25 04:13:56;;;;;;;7.30;5.00;;;;;;;;;;5100194;28;20445;-82
2023/01/25 04:16:23;;;;;;;6.93;5.03;;;;;;;;;;5105332;28;20453;-82
2023/01/25 04:18:50;;;;;;;12.20;6.60;;;;;;;;;;5110282;28;20440;-81
2023/01/25 04:21:17;;;;;;;9.53;4.73;;;;;;;;;;5106312;28;20866;-82
2023/01/25 04:23:45;;;;;;;8.50;5.30;;;;;;;;;;5095471;28;20446;-81
2023/01/25 04:26:16;;;;;;;9.40;5.90;;;;;;;;;;5093751;28;20456;-82
2023/01/25 04:28:43;;;;;;;9.07;4.13;;;;;;;;;;5094458;28;20445;-83
2023/01/25 04:31:10;;;;;;;13.80;6.70;;;;;;;;;;5094066;28;20449;-82
2023/01/25 04:33:38;;;;;;;9.07;4.33;;;;;;;;;;5093282;28;20467;-81
2023/01/25 04:36:05;;;;;;;6.90;4.67;;;;;;;;;;5093404;28;20457;-81
2023/01/25 04:38:32;;;;;;;9.90;5.03;;;;;;;;;;5092968;28;20456;-81
2023/01/25 04:40:59;;;;;;;8.30;5.30;;;;;;;;;;5093576;28;20484;-81
2023/01/25 04:43:28;;;;;;;10.20;6.13;;;;;;;;;;5092847;28;20441;-80
2023/01/25 04:45:55;;;;;;;6.33;4.13;;;;;;;;;;5093048;28;20923;-81
2023/01/25 04:48:22;;;;;;;9.23;5.80;;;;;;;;;;5092944;28;20445;-81
2023/01/25 04:50:49;;;;;;;7.70;5.47;;;;;;;;;;5093618;28;20453;-80
2023/01/25 04:53:16;;;;;;;10.20;5.37;;;;;;;;;;5093975;28;20537;-82
2023/01/25 04:55:45;;;;;;;12.47;5.30;;;;;;;;;;5093170;28;20480;-82
2023/01/25 04:58:12;;;;;;;10.10;5.27;;;;;;;;;;5093296;28;20441;-82
2023/01/25 05:00:40;;;;;;;6.27;4.83;;;;;;;;;;5092551;28;20484;-82
2023/01/25 05:03:07;;;;;;;8.77;5.17;;;;;;;;;;5092717;28;20466;-82
2023/01/25 05:05:35;;;;;;;10.30;3.87;;;;;;;;;;5092097;28;20452;-81
2023/01/25 05:08:02;;;;;;;5.57;3.87;;;;;;;;;;5093840;28;20444;-81
2023/01/25 05:10:29;;;;;;;9.03;5.17;;;;;;;;;;5084656;28;20454;-81
2023/01/25 05:12:56;;;;;;;10.07;4.43;;;;;;;;;;5091983;28;20486;-81
2023/01/25 05:15:23;;;;;;;6.97;4.07;;;;;;;;;;5090328;28;20950;-81
2023/01/25 05:17:52;;;;;;;7.90;4.40;;;;;;;;;;5092904;28;20444;-81
2023/01/25 05:20:19;;;;;;;10.60;5.07;;;;;;;;;;5086719;28;20472;-73
2023/01/25 05:22:46;;;;;;;10.30;5.17;;;;;;;;;;5092770;28;20450;-82
2023/01/25 05:27:54;;;;;;;6.30;4.20;;;;;;;;;;5091450;28;20437;-82
2023/01/25 05:30:21;;;;;;;9.50;5.17;;;;;;;;;;5092194;28;20495;-81
2023/01/25 05:32:49;;;;;;;6.20;3.97;;;;;;;;;;5091227;28;21063;-77
2023/01/25 05:35:18;;;;;;;7.50;3.80;;;;;;;;;;5090478;28;20500;-78
2023/01/25 05:37:45;;;;;;;7.80;4.80;;;;;;;;;;5090558;28;20443;-81
2023/01/25 05:40:13;;;;;;;8.70;4.37;;;;;;;;;;5092636;28;20484;-82
2023/01/25 05:42:40;;;;;;;7.30;5.23;;;;;;;;;;5092124;28;20507;-80
2023/01/25 05:45:08;;;;;;;5.53;3.70;;;;;;;;;;5091428;28;20467;-80
2023/01/25 05:47:35;;;;;;;7.13;3.80;;;;;;;;;;5091583;28;20442;-79
2023/01/25 05:50:02;;;;;;;7.47;6.67;;;;;;;;;;5092107;28;20453;-80
2023/01/25 05:52:31;;;;;;;5.97;5.20;;;;;;;;;;5091469;28;20966;-77
2023/01/25 05:54:58;;;;;;;7.43;3.37;;;;;;;;;;5091689;28;20461;-77
2023/01/25 05:57:25;;;;;;;7.30;4.93;;;;;;;;;;5091415;28;20442;-78
2023/01/25 05:59:52;;;;;;;6.60;4.00;;;;;;;;;;5091636;28;20475;-75
2023/01/25 06:02:19;;;;;;;7.30;3.90;;;;;;;;;;5082512;28;20938;-78
2023/01/25 06:04:46;;;;;;;7.37;5.43;;;;;;;;;;5091573;28;20446;-83
2023/01/25 06:07:13;;;;;;;6.70;5.03;;;;;;;;;;5091760;28;20456;-82
2023/01/25 06:09:41;;;;;;;7.93;4.40;;;;;;;;;;5091810;28;20801;-82
2023/01/25 06:12:09;;;;;;;9.13;5.17;;;;;;;;;;5091600;28;20461;-77
2023/01/25 06:14:36;;;;;;;7.70;4.13;;;;;;;;;;5090583;28;20974;-77
2023/01/25 06:17:03;;;;;;;8.97;4.23;;;;;;;;;;5091866;28;20464;-78
2023/01/25 06:19:30;;;;;;;10.03;3.93;;;;;;;;;;5084588;28;20447;-77
2023/01/25 06:21:57;;;;;;;8.07;4.73;;;;;;;;;;5090279;28;20448;-77
2023/01/25 06:24:25;;;;;;;5.30;3.43;;;;;;;;;;5090490;28;20940;-76
2023/01/25 06:26:53;;;;;;;10.80;4.67;;;;;;;;;;5091346;28;20452;-77
2023/01/25 06:29:20;;;;;;;7.97;4.47;;;;;;;;;;5091585;28;20477;-77
2023/01/25 06:31:47;;;;;;;10.50;5.67;;;;;;;;;;5091203;28;20460;-77
2023/01/25 06:34:15;;;;;;;7.43;4.40;;;;;;;;;;5091363;28;20441;-77
2023/01/25 06:36:43;;;;;;;12.03;4.70;;;;;;;;;;5090570;28;20450;-77
2023/01/25 06:39:10;;;;;;;12.00;4.27;;;;;;;;;;5091465;28;20442;-78
2023/01/25 06:41:37;;;;;;;7.50;4.23;;;;;;;;;;5089911;28;20493;-77
2023/01/25 06:44:05;;;;;;;6.47;4.10;;;;;;;;;;5090795;28;20469;-77
2023/01/25 06:46:33;;;;;;;5.57;4.30;;;;;;;;;;5090806;28;20459;-77
2023/01/25 06:49:00;;;;;;;6.27;4.27;;;;;;;;;;5091123;28;20452;-76
2023/01/25 06:51:27;;;;;;;7.00;4.30;;;;;;;;;;5090317;28;20808;-77
2023/01/25 06:53:54;;;;;;;12.63;4.90;;;;;;;;;;5091505;28;20445;-77
2023/01/25 06:56:22;;;;;;;9.60;4.60;;;;;;;;;;5090713;28;20456;-77
2023/01/25 06:58:50;;;;;;;6.47;5.27;;;;;;;;;;5091259;28;20815;-76
2023/01/25 07:01:19;;;;;;;10.10;4.73;;;;;;;;;;5090879;28;20488;-77
2023/01/25 07:03:48;;;;;;;8.27;3.53;;;;;;;;;;5091380;28;20449;-75
2023/01/25 07:06:15;;;;;;;5.83;4.60;;;;;;;;;;5091188;28;20446;-77
2023/01/25 07:08:43;;;;;;;9.17;4.40;;;;;;;;;;5090972;28;20450;-76
2023/01/25 07:11:12;;;;;;;7.37;4.10;;;;;;;;;;5090347;28;20459;-77
2023/01/25 07:13:40;;;;;;;10.60;3.60;;;;;;;;;;5090793;28;20454;-77
2023/01/25 07:16:08;;;;;;;8.53;4.30;;;;;;;;;;5090999;28;20446;-77
2023/01/25 07:18:36;;;;;;;6.60;3.57;;;;;;;;;;5090617;28;20920;-76
2023/01/25 07:21:05;;;;;;;7.30;4.73;;;;;;;;;;5090635;28;20485;-76
2023/01/25 07:23:33;;;;;;;10.20;5.93;;;;;;;;;;5090555;28;20448;-77
2023/01/25 07:26:00;;;;;;;8.83;5.10;;;;;;;;;;5077684;28;20995;-76
2023/01/25 07:28:28;;;;;;;10.33;6.60;;;;;;;;;;5090212;28;20448;-75
2023/01/25 07:30:55;;;;;;;9.73;5.00;;;;;;;;;;5090427;28;20455;-77
2023/01/25 07:33:23;;;;;;;5.47;3.53;;;;;;;;;;5090033;28;20508;-76
2023/01/25 07:35:51;;;;;;;8.83;4.40;;;;;;;;;;5090968;28;20452;-76
2023/01/25 07:38:19;;;;;;;8.20;4.20;;;;;;;;;;5090250;28;20452;-71
2023/01/25 07:40:51;;;;;;;7.77;4.07;;;;;;;;;;5090340;28;20840;-77
2023/01/25 07:43:19;;;;;;;10.97;5.03;;;;;;;;;;5090072;28;20463;-71
2023/01/25 07:45:47;;;;;;;9.77;5.03;;;;;;;;;;5091210;28;20476;-77
2023/01/25 07:48:14;;;;;;;11.27;6.00;;;;;;;;;;5090908;28;20448;-77
2023/01/25 07:50:45;;;;;;;12.43;5.80;;;;;;;;;;5089967;28;20452;-77
2023/01/25 07:53:14;;;;;;;8.23;5.80;;;;;;;;;;5090481;28;20446;-76
2023/01/25 07:55:41;;;;;;;5.70;4.30;;;;;;;;;;5091028;28;20456;-76
2023/01/25 07:58:09;;;;;;;15.37;4.37;;;;;;;;;;5094196;28;20859;-76
2023/01/25 08:00:36;;;;;;;7.20;4.37;;;;;;;;;;5093254;28;20573;-76
2023/01/25 08:03:03;;;;;;;5.97;3.60;;;;;;;;;;5094312;28;20917;-76
2023/01/25 08:05:30;;;;;;;11.33;5.13;;;;;;;;;;5093419;28;20507;-76
2023/01/25 08:07:57;;;;;;;12.80;4.63;;;;;;;;;;5094096;28;20448;-76
2023/01/25 08:10:26;;;;;;;7.80;4.43;;;;;;;;;;5092987;28;20958;-76
2023/01/25 08:12:53;;;;;;;9.87;4.73;;;;;;;;;;5093960;28;20946;-76
2023/01/25 08:15:20;;;;;;;9.97;6.00;;;;;;;;;;5093459;28;20432;-76
2023/01/25 08:17:47;;;;;;;9.70;3.70;;;;;;;;;;5093999;28;20803;-77
2023/01/25 08:20:14;;;;;;;6.50;4.47;;;;;;;;;;5093315;28;20953;-77
2023/01/25 08:22:41;;;;;;;7.53;4.00;;;;;;;;;;5093327;28;20445;-76
2023/01/25 08:25:09;;;;;;;6.57;4.23;;;;;;;;;;5094164;28;20955;-76
2023/01/25 08:27:37;;;;;;;7.17;4.30;;;;;;;;;;5079311;28;20806;-76
2023/01/25 08:30:05;;;;;;;7.90;5.10;;;;;;;;;;5093346;28;20527;-75
2023/01/25 08:32:32;;;;;;;9.50;5.60;;;;;;;;;;5093257;28;20462;-76
2023/01/25 08:34:59;;;;;;;6.60;4.17;;;;;;;;;;5093604;28;20819;-76
2023/01/25 08:37:28;;;;;;;7.50;5.03;;;;;;;;;;5093011;28;20455;-76
2023/01/25 08:39:56;;;;;;;10.53;6.43;;;;;;;;;;5093321;28;20455;-74
2023/01/25 08:42:23;;;;;;;5.37;4.10;;;;;;;;;;5092675;28;20544;-76
2023/01/25 08:44:52;;;;;;;8.00;4.90;;;;;;;;;;5093252;28;20487;-75
2023/01/25 08:47:19;;;;;;;5.40;3.83;;;;;;;;;;5092635;28;20448;-73
2023/01/25 08:49:46;;;;;;;10.00;5.93;;;;;;;;;;5093431;28;20444;-76
2023/01/25 08:52:14;;;;;;;11.63;6.23;;;;;;;;;;5093367;28;20448;-78
2023/01/25 08:54:43;;;;;;;10.27;4.73;;;;;;;;;;5092385;28;20935;-76
2023/01/25 08:57:10;;;;;;;7.70;4.37;;;;;;;;;;5093305;28;20437;-76
2023/01/25 08:59:37;;;;;;;10.93;5.30;;;;;;;;;;5092244;28;20463;-76
2023/01/25 09:02:06;;;;;;;10.30;5.23;;;;;;;;;;5092765;28;20485;-76
2023/01/25 09:04:33;;;;;;;9.43;5.87;;;;;;;;;;5092730;28;20449;-78
2023/01/25 09:07:00;;;;;;;8.23;4.50;;;;;;;;;;5093046;28;20519;-76
2023/01/25 09:09:28;;;;;;;7.90;4.83;;;;;;;;;;5092380;28;20549;-77
2023/01/25 09:11:55;;;;;;;10.70;5.63;;;;;;;;;;5092473;28;20449;-77
2023/01/25 09:14:23;;;;;;;7.03;4.83;;;;;;;;;;5092613;28;20451;-76
2023/01/25 09:16:50;;;;;;;9.03;6.30;;;;;;;;;;5092879;28;20460;-75
2023/01/25 09:19:19;;;;;;;8.23;4.00;;;;;;;;;;5093132;28;20812;-76
2023/01/25 09:21:47;;;;;;;9.33;3.77;;;;;;;;;;5074420;28;20478;-76
2023/01/25 09:24:14;;;;;;;11.87;5.53;;;;;;;;;;5092806;28;20528;-78
2023/01/25 09:26:42;;;;;;;9.30;4.83;;;;;;;;;;5092314;28;20454;-78
2023/01/25 09:29:10;;;;;;;8.67;5.30;;;;;;;;;;5092515;28;20452;-78
2023/01/25 09:31:38;;;;;;;5.77;4.67;;;;;;;;;;5091708;28;20455;-75
2023/01/25 09:34:06;;;;;;;10.60;5.20;;;;;;;;;;5092297;28;20498;-78
2023/01/25 09:36:34;;;;;;;8.20;5.40;;;;;;;;;;5091571;28;20549;-78
2023/01/25 09:39:01;;;;;;;10.47;6.03;;;;;;;;;;5078807;28;20460;-77
2023/01/25 09:41:35;;;;;;;5.83;3.83;;;;;;;;;;5091338;28;20488;-76
2023/01/25 09:44:13;;;;;;;11.07;6.87;;;;;;;;;;5092083;28;20476;-77
2023/01/25 09:46:41;;;;;;;12.63;5.47;;;;;;;;;;5091759;28;20447;-77
2023/01/25 09:49:16;;;;;;;8.10;5.57;;;;;;;;;;5092422;28;20447;-78
2023/01/25 09:51:53;;;;;;;9.23;4.37;;;;;;;;;;5091496;28;20454;-77
2023/01/25 09:54:21;;;;;;;10.70;4.40;;;;;;;;;;5091679;28;20460;-77
2023/01/25 09:56:49;;;;;;;7.73;4.33;;;;;;;;;;5092168;28;20466;-78
2023/01/25 09:59:18;;;;;;;9.27;5.20;;;;;;;;;;5091753;28;20454;-77
2023/01/25 10:01:53;;;;;;;7.87;5.37;;;;;;;;;;5077673;28;20492;-77
2023/01/25 10:04:23;;;;;;;7.13;4.50;;;;;;;;;;5091321;28;20529;-77
2023/01/25 10:06:53;;;;;;;7.73;4.90;;;;;;;;;;5091620;28;20932;-75
2023/01/25 10:09:24;;;;;;;7.80;4.00;;;;;;;;;;5091294;28;20457;-76
2023/01/25 10:11:52;;;;;;;8.67;4.53;;;;;;;;;;5091434;28;20469;-77
2023/01/25 10:14:20;;;;;;;7.63;4.23;;;;;;;;;;5091095;28;20541;-74
2023/01/25 10:16:54;;;;;;;8.40;5.80;;;;;;;;;;5091944;28;20534;-77
2023/01/25 10:19:24;;;;;;;12.70;4.87;;;;;;;;;;5090686;28;20537;-77
2023/01/25 10:21:55;;;;;;;6.80;3.97;;;;;;;;;;5090882;28;20472;-77
2023/01/25 10:24:31;;;;;;;8.00;4.63;;;;;;;;;;5078052;28;20452;-77
2023/01/25 10:27:02;;;;;;;8.23;5.40;;;;;;;;;;5091612;28;20528;-77
2023/01/25 10:29:32;;;;;;;11.10;4.30;;;;;;;;;;5090968;28;20449;-77
2023/01/25 10:32:03;;;;;;;6.20;3.13;;;;;;;;;;5091061;28;20460;-77
2023/01/25 10:34:31;;;;;;;8.07;5.07;;;;;;;;;;5090961;28;20443;-77
2023/01/25 10:37:02;;;;;;;10.43;4.40;;;;;;;;;;5091130;28;20452;-77
2023/01/25 10:39:30;;;;;;;7.27;4.70;;;;;;;;;;5090702;28;20447;-77
2023/01/25 10:41:58;;;;;;;11.20;5.43;;;;;;;;;;5090983;28;20502;-77
2023/01/25 10:44:27;;;;;;;8.93;5.70;;;;;;;;;;5090890;28;20486;-77
2023/01/25 10:46:58;;;;;;;9.63;4.83;;;;;;;;;;5091479;28;20899;-77
2023/01/25 10:49:27;;;;;;;5.93;4.60;;;;;;;;;;5090768;28;20532;-77
2023/01/25 10:51:55;;;;;;;9.13;5.40;;;;;;;;;;5077446;28;20461;-78
2023/01/25 10:54:24;;;;;;;8.73;5.27;;;;;;;;;;5090625;28;20528;-78
2023/01/25 10:56:51;;;;;;;6.53;5.57;;;;;;;;;;5091239;28;20450;-77
2023/01/25 10:59:21;;;;;;;9.03;4.67;;;;;;;;;;5090775;28;20448;-71
2023/01/25 11:01:48;;;;;;;8.33;4.80;;;;;;;;;;5090988;28;20491;-77
2023/01/25 11:04:40;;;;;;;8.00;5.50;;;;;;;;;;5091293;28;20454;-78
2023/01/25 11:07:25;;;;;;;10.27;6.03;;;;;;;;;;5072201;28;20492;-77
2023/01/25 11:09:54;;;;;;;12.77;6.03;;;;;;;;;;5078783;28;20451;-77
2023/01/25 11:12:21;;;;;;;9.77;5.20;;;;;;;;;;5090469;28;20470;-77
2023/01/25 11:14:49;;;;;;;5.57;4.47;;;;;;;;;;5091029;28;20454;-75
2023/01/25 11:17:24;;;;;;;6.80;4.87;;;;;;;;;;5091151;28;20489;-77
2023/01/25 11:20:05;;;;;;;6.27;5.00;;;;;;;;;;5090791;28;20447;-77
2023/01/25 11:22:33;;;;;;;9.27;6.33;;;;;;;;;;5089983;28;20988;-77
2023/01/25 11:25:21;;;;;;;15.70;6.47;;;;;;;;;;5090913;28;20452;-77
2023/01/25 11:27:48;;;;;;;13.10;5.57;;;;;;;;;;5079200;28;20541;-75
2023/01/25 11:30:18;;;;;;;9.37;5.03;;;;;;;;;;5090844;28;20947;-78
2023/01/25 11:32:45;;;;;;;10.63;5.60;;;;;;;;;;5094743;28;20989;-78
2023/01/25 11:35:13;;;;;;;9.73;5.70;;;;;;;;;;5094653;28;20455;-78
2023/01/25 11:37:47;;;;;;;8.47;5.37;;;;;;;;;;5094130;28;20501;-78
2023/01/25 11:40:20;;;;;;;8.60;5.50;;;;;;;;;;5094439;28;20441;-78
2023/01/25 11:42:57;;;;;;;9.57;6.47;;;;;;;;;;5094393;28;20496;-77
2023/01/25 11:45:38;;;;;;;6.20;4.57;;;;;;;;;;5093463;28;20957;-77
2023/01/25 11:48:22;;;;;;;10.40;5.77;;;;;;;;;;5094528;28;20785;-77
2023/01/25 11:50:51;;;;;;;8.97;4.33;;;;;;;;;;5094122;28;20469;-77
2023/01/25 11:53:29;;;;;;;9.03;4.83;;;;;;;;;;5093779;28;20956;-72
2023/01/25 11:56:02;;;;;;;11.50;6.70;;;;;;;;;;5094089;28;20949;-77
2023/01/25 11:58:50;;;;;;;8.93;6.00;;;;;;;;;;5093602;28;20446;-78
2023/01/25 12:01:21;;;;;;;9.83;5.80;;;;;;;;;;5087574;28;20457;-77
2023/01/25 12:04:08;;;;;;;11.07;6.30;;;;;;;;;;5094455;28;20447;-75
2023/01/25 12:06:39;;;;;;;7.00;5.20;;;;;;;;;;5080952;28;20795;-78
2023/01/25 12:09:14;;;;;;;10.83;5.40;;;;;;;;;;5094178;28;20458;-77
2023/01/25 12:11:47;;;;;;;10.03;6.27;;;;;;;;;;5093225;28;20456;-78
2023/01/25 12:14:20;;;;;;;10.30;4.83;;;;;;;;;;5094074;28;20441;-78
2023/01/25 12:16:54;;;;;;;11.83;7.40;;;;;;;;;;5094322;28;20523;-77
2023/01/25 12:19:29;;;;;;;9.20;5.30;;;;;;;;;;5093407;28;20436;-77
2023/01/25 12:22:03;;;;;;;9.30;5.50;;;;;;;;;;5093196;28;20967;-77
2023/01/25 12:24:38;;;;;;;13.73;5.33;;;;;;;;;;5093350;28;20439;-77
2023/01/25 12:27:12;;;;;;;7.77;5.07;;;;;;;;;;5093793;28;20440;-76
2023/01/25 12:29:41;;;;;;;12.23;7.73;;;;;;;;;;5092742;28;20454;-77
2023/01/25 12:32:09;;;;;;;7.63;5.03;;;;;;;;;;5093353;28;20459;-77
2023/01/25 12:34:38;;;;;;;12.33;6.07;;;;;;;;;;5092851;28;20450;-77
2023/01/25 12:37:08;;;;;;;10.53;5.27;;;;;;;;;;5093457;28;20450;-77
2023/01/25 12:39:40;;;;;;;12.43;7.00;;;;;;;;;;5092694;28;20518;-77
2023/01/25 12:42:13;;;;;;;10.87;6.83;;;;;;;;;;5092758;28;20496;-77
2023/01/25 12:44:43;;;;;;;8.40;4.97;;;;;;;;;;5092756;28;20472;-74
2023/01/25 12:47:14;;;;;;;8.93;5.60;;;;;;;;;;5080694;28;20442;-76
2023/01/25 12:49:43;;;;;;;7.47;5.77;;;;;;;;;;5092373;28;20788;-77
2023/01/25 12:52:19;;;;;;;11.13;7.17;;;;;;;;;;5092992;28;20452;-77
2023/01/25 12:54:48;;;;;;;11.93;6.80;;;;;;;;;;5092954;28;20458;-77
2023/01/25 12:57:22;;;;;;;12.00;6.27;;;;;;;;;;5091033;28;20465;-80
2023/01/25 12:59:55;;;;;;;6.07;4.80;;;;;;;;;;5090097;28;21259;-74
2023/01/25 13:02:41;;;;;;;12.37;6.63;;;;;;;;;;5090503;28;20472;-77
2023/01/25 13:05:14;;;;;;;9.80;5.53;;;;;;;;;;5088655;28;20493;-77
2023/01/25 13:07:43;;;;;;;12.40;5.57;;;;;;;;;;5088956;28;20444;-78
2023/01/25 13:10:16;;;;;;;13.60;6.60;;;;;;;;;;5092443;28;20452;-78
2023/01/25 13:12:55;;;;;;;11.10;6.57;;;;;;;;;;5092346;28;20523;-77
2023/01/25 13:15:35;;;;;;;10.73;6.00;;;;;;;;;;5091846;28;20448;-78
2023/01/25 13:18:02;;;;;;;9.93;6.60;;;;;;;;;;5082067;28;20452;-77
2023/01/25 13:20:44;;;;;;;9.47;6.50;;;;;;;;;;5090722;28;20949;-76
2023/01/25 13:23:27;;;;;;;13.43;6.73;;;;;;;;;;5084931;28;20485;-77
2023/01/25 13:26:15;;;;;;;10.77;7.27;;;;;;;;;;5091084;28;20446;-74
2023/01/25 13:28:45;;;;;;;11.43;6.43;;;;;;;;;;5090612;28;20459;-77
2023/01/25 13:31:37;;;;;;;11.03;5.90;;;;;;;;;;5091855;28;20437;-78
2023/01/25 13:34:09;;;;;;;7.93;6.60;;;;;;;;;;5089630;28;20813;-82
2023/01/25 13:36:45;;;;;;;13.63;8.33;;;;;;;;;;5085808;28;20812;-83
2023/01/25 13:39:43;;;;;;;12.13;6.30;;;;;;;;;;5076039;28;20440;-82
2023/01/25 13:42:19;;;;;;;10.80;6.93;;;;;;;;;;5009200;28;20484;-83
2023/01/25 13:44:48;;;;;;;7.43;4.83;;;;;;;;;;5078171;28;20855;-84
2023/01/25 13:47:17;;;;;;;10.27;5.70;;;;;;;;;;5092462;28;20444;-83
2023/01/25 13:49:48;;;;;;;11.87;5.77;;;;;;;;;;5083855;28;20876;-83
2023/01/25 13:52:16;;;;;;;8.80;5.57;;;;;;;;;;5092555;28;20447;-83
2023/01/25 13:54:43;;;;;;;9.50;5.40;;;;;;;;;;5090242;28;20451;-83
2023/01/25 13:57:13;;;;;;;10.47;7.33;;;;;;;;;;5091623;28;20801;-84
2023/01/25 13:59:40;;;;;;;9.23;4.77;;;;;;;;;;5086258;28;20460;-83
2023/01/25 14:02:13;;;;;;;9.93;6.13;;;;;;;;;;5091999;28;20808;-84
2023/01/25 14:04:40;;;;;;;17.20;6.60;;;;;;;;;;5091517;28;20441;-82
2023/01/25 14:07:15;;;;;;;12.70;5.57;;;;;;;;;;5091289;28;20527;-82
2023/01/25 14:09:43;;;;;;;7.30;5.97;;;;;;;;;;5090447;28;20440;-81
2023/01/25 14:12:11;;;;;;;11.80;6.37;;;;;;;;;;5091821;28;20952;-83
2023/01/25 14:14:38;;;;;;;11.37;6.17;;;;;;;;;;5091246;28;20811;-81
2023/01/25 14:17:13;;;;;;;14.87;7.90;;;;;;;;;;5091113;28;20962;-82
2023/01/25 14:19:43;;;;;;;11.83;6.97;;;;;;;;;;5091448;28;20485;-84
2023/01/25 14:22:25;;;;;;;10.37;5.13;;;;;;;;;;5091089;28;20440;-83
2023/01/25 14:25:07;;;;;;;10.67;6.37;;;;;;;;;;5091346;28;20504;-82
2023/01/25 14:27:34;;;;;;;10.60;6.60;;;;;;;;;;5084102;28;20449;-83
2023/01/25 14:30:02;;;;;;;13.77;7.40;;;;;;;;;;5090940;28;20453;-81
2023/01/25 14:32:29;;;;;;;13.30;6.30;;;;;;;;;;5090538;28;20809;-81
2023/01/25 14:34:56;;;;;;;12.07;5.83;;;;;;;;;;5091436;28;20452;-84
2023/01/25 14:37:24;;;;;;;12.83;5.70;;;;;;;;;;5083797;28;20475;-83
2023/01/25 14:39:52;;;;;;;9.47;6.70;;;;;;;;;;5089302;28;20444;-81
2023/01/25 14:42:19;;;;;;;10.77;6.50;;;;;;;;;;5090116;28;20448;-77
2023/01/25 14:44:46;;;;;;;12.03;6.23;;;;;;;;;;5086053;28;20470;-83
2023/01/25 14:47:21;;;;;;;15.60;7.70;;;;;;;;;;5091296;28;20451;-83
2023/01/25 14:49:48;;;;;;;13.10;6.20;;;;;;;;;;5091093;28;20533;-80
2023/01/25 14:52:18;;;;;;;15.60;8.00;;;;;;;;;;5086643;28;20437;-83